createdAt,value
2018-02-21T00:01:09.020Z,54.39
2018-02-21T00:03:36.539Z,54.41
2018-02-21T00:06:04.049Z,54.21
2018-02-21T00:08:31.597Z,54.27
2018-02-21T00:10:59.035Z,54.51
2018-02-21T00:13:26.525Z,54.64
2018-02-21T00:15:54.046Z,53.68
2018-02-21T00:18:21.518Z,54.20
2018-02-21T00:20:48.973Z,53.94
2018-02-21T00:23:16.432Z,53.38
2018-02-21T00:25:43.890Z,53.53
2018-02-21T00:28:11.410Z,53.77
2018-02-21T00:30:39.555Z,53.40
2018-02-21T00:33:06.993Z,53.77
2018-02-21T00:35:34.550Z,53.77
2018-02-21T00:38:02.350Z,53.94
2018-02-21T00:40:30.023Z,53.67
2018-02-21T00:42:57.548Z,53.49
2018-02-21T00:45:25.338Z,53.44
2018-02-21T00:47:52.831Z,53.58
2018-02-21T00:50:20.299Z,53.13
2018-02-21T00:52:47.847Z,53.25
2018-02-21T00:55:15.511Z,53.07
2018-02-21T00:57:43.514Z,53.14
2018-02-21T01:00:10.974Z,52.93
2018-02-21T01:02:38.584Z,52.78
2018-02-21T01:05:06.005Z,53.21
2018-02-21T01:07:33.434Z,53.87
2018-02-21T01:10:00.980Z,53.50
2018-02-21T01:12:28.480Z,53.75
2018-02-21T01:14:56.026Z,54.38
2018-02-21T01:17:23.446Z,54.46
2018-02-21T01:19:50.923Z,53.53
2018-02-21T01:22:18.567Z,53.74
2018-02-21T01:24:46.832Z,53.52
2018-02-21T01:27:14.348Z,53.41
2018-02-21T01:29:41.871Z,53.71
2018-02-21T01:32:09.338Z,53.49
2018-02-21T01:34:36.810Z,53.88
2018-02-21T01:37:04.313Z,53.67
2018-02-21T01:39:31.826Z,53.81
2018-02-21T01:41:59.359Z,54.08
2018-02-21T01:44:26.960Z,53.96
2018-02-21T01:46:54.421Z,54.12
2018-02-21T01:49:22.062Z,54.51
2018-02-21T01:51:49.530Z,54.19
2018-02-21T01:54:17.520Z,53.79
2018-02-21T01:56:44.982Z,53.83
2018-02-21T01:59:12.475Z,54.17
2018-02-21T02:01:39.950Z,54.18
2018-02-21T02:04:07.451Z,53.94
2018-02-21T02:06:34.848Z,53.94
2018-02-21T02:09:02.289Z,54.05
2018-02-21T02:11:29.791Z,54.34
2018-02-21T02:13:57.258Z,54.25
2018-02-21T02:16:24.742Z,54.40
2018-02-21T02:18:52.335Z,54.36
2018-02-21T02:21:19.837Z,54.27
2018-02-21T02:23:47.359Z,53.99
2018-02-21T02:26:14.860Z,54.16
2018-02-21T02:28:42.380Z,53.89
2018-02-21T02:31:09.818Z,53.75
2018-02-21T02:33:37.319Z,53.59
2018-02-21T02:36:04.714Z,53.83
2018-02-21T02:38:40.836Z,53.64
2018-02-21T02:41:08.351Z,53.54
2018-02-21T02:43:35.851Z,53.67
2018-02-21T02:46:03.337Z,53.68
2018-02-21T02:48:30.830Z,53.91
2018-02-21T02:50:58.314Z,53.42
2018-02-21T02:53:25.838Z,52.83
2018-02-21T02:55:53.444Z,52.84
2018-02-21T02:58:20.933Z,53.00
2018-02-21T03:00:48.460Z,53.21
2018-02-21T03:03:15.965Z,52.85
2018-02-21T03:05:43.439Z,52.60
2018-02-21T03:08:10.935Z,52.57
2018-02-21T03:10:38.443Z,52.47
2018-02-21T03:13:05.964Z,52.14
2018-02-21T03:15:33.474Z,51.82
2018-02-21T03:18:00.910Z,51.84
2018-02-21T03:20:28.461Z,51.65
2018-02-21T03:22:55.989Z,51.20
2018-02-21T03:25:23.502Z,51.26
2018-02-21T03:27:50.991Z,50.88
2018-02-21T03:30:18.447Z,50.77
2018-02-21T03:32:45.863Z,50.76
2018-02-21T03:35:13.392Z,50.30
2018-02-21T03:37:40.851Z,50.09
2018-02-21T03:40:08.393Z,50.16
2018-02-21T03:42:36.753Z,50.31
2018-02-21T03:45:05.356Z,50.57
2018-02-21T03:47:32.919Z,51.30
2018-02-21T03:50:00.409Z,51.26
2018-02-21T03:52:27.980Z,51.20
2018-02-21T03:54:55.655Z,51.55
2018-02-21T03:57:23.151Z,52.19
2018-02-21T03:59:50.672Z,52.08
2018-02-21T04:02:18.511Z,52.21
2018-02-21T04:04:46.011Z,52.20
2018-02-21T04:07:13.478Z,51.75
2018-02-21T04:09:40.962Z,51.73
2018-02-21T04:12:08.460Z,52.50
2018-02-21T04:14:35.916Z,52.28
2018-02-21T04:17:03.530Z,52.20
2018-02-21T04:19:31.098Z,52.76
2018-02-21T04:21:58.624Z,52.69
2018-02-21T04:24:26.220Z,51.98
2018-02-21T04:26:53.659Z,52.07
2018-02-21T04:29:21.050Z,53.04
2018-02-21T04:31:48.489Z,53.35
2018-02-21T04:34:16.003Z,53.27
2018-02-21T04:36:43.471Z,54.14
2018-02-21T04:39:11.026Z,54.89
2018-02-21T04:41:38.523Z,55.48
2018-02-21T04:44:05.946Z,55.64
2018-02-21T04:46:33.404Z,55.37
2018-02-21T04:49:00.989Z,55.27
2018-02-21T04:51:28.638Z,54.86
2018-02-21T04:53:56.834Z,54.74
2018-02-21T04:56:27.762Z,54.38
2018-02-21T04:58:58.798Z,54.21
2018-02-21T05:01:26.327Z,54.64
2018-02-21T05:03:53.828Z,54.74
2018-02-21T05:06:21.292Z,54.24
2018-02-21T05:11:23.299Z,53.69
2018-02-21T05:13:50.765Z,54.75
2018-02-21T05:16:18.273Z,55.20
2018-02-21T05:18:45.745Z,55.32
2018-02-21T05:21:13.251Z,55.19
2018-02-21T05:23:40.721Z,54.63
2018-02-21T05:26:08.231Z,54.94
2018-02-21T05:28:35.737Z,55.20
2018-02-21T05:31:03.467Z,55.00
2018-02-21T05:33:31.033Z,54.99
2018-02-21T05:35:58.538Z,55.29
2018-02-21T05:38:26.147Z,55.35
2018-02-21T05:40:53.771Z,55.78
2018-02-21T05:43:21.347Z,55.41
2018-02-21T05:45:48.937Z,55.29
2018-02-21T05:48:16.408Z,55.61
2018-02-21T05:50:44.257Z,55.75
2018-02-21T05:53:11.765Z,55.42
2018-02-21T05:55:39.518Z,55.87
2018-02-21T05:58:07.034Z,55.91
2018-02-21T06:00:34.497Z,55.72
2018-02-21T06:03:01.950Z,55.98
2018-02-21T06:05:29.467Z,55.88
2018-02-21T06:07:56.989Z,55.84
2018-02-21T06:10:24.472Z,55.90
2018-02-21T06:12:51.973Z,55.97
2018-02-21T06:15:19.495Z,56.25
2018-02-21T06:17:47.030Z,56.17
2018-02-21T06:20:14.501Z,55.88
2018-02-21T06:22:41.950Z,55.85
2018-02-21T06:25:09.758Z,56.31
2018-02-21T06:27:37.252Z,55.89
2018-02-21T06:30:04.786Z,55.81
2018-02-21T06:32:32.273Z,56.17
2018-02-21T06:34:59.771Z,56.04
2018-02-21T06:37:27.244Z,56.31
2018-02-21T06:39:55.626Z,56.18
2018-02-21T06:42:23.367Z,55.65
2018-02-21T06:44:50.836Z,55.67
2018-02-21T06:47:18.373Z,55.52
2018-02-21T06:49:45.937Z,55.39
2018-02-21T06:52:13.445Z,55.10
2018-02-21T06:54:40.969Z,55.10
2018-02-21T06:57:08.471Z,54.70
2018-02-21T06:59:36.031Z,55.43
2018-02-21T07:02:04.549Z,55.52
2018-02-21T07:04:32.023Z,55.27
2018-02-21T07:06:59.511Z,55.58
2018-02-21T07:09:27.115Z,55.84
2018-02-21T07:11:54.617Z,56.12
2018-02-21T07:14:22.178Z,56.05
2018-02-21T07:16:49.684Z,55.55
2018-02-21T07:19:17.998Z,55.08
2018-02-21T07:21:45.860Z,54.66
2018-02-21T07:24:13.346Z,53.67
2018-02-21T07:26:40.914Z,52.41
2018-02-21T07:29:08.426Z,51.85
2018-02-21T07:31:35.917Z,50.96
2018-02-21T07:34:03.389Z,50.06
2018-02-21T07:36:30.862Z,50.17
2018-02-21T07:38:58.629Z,50.32
2018-02-21T07:41:26.153Z,49.84
2018-02-21T07:43:54.448Z,50.00
2018-02-21T07:46:21.914Z,49.29
2018-02-21T07:48:49.431Z,48.07
2018-02-21T07:51:17.035Z,47.38
2018-02-21T07:53:44.559Z,46.60
2018-02-21T07:56:12.102Z,45.68
2018-02-21T07:58:39.720Z,45.01
2018-02-21T08:01:07.206Z,45.27
2018-02-21T08:03:34.758Z,45.31
2018-02-21T08:06:03.128Z,44.83
2018-02-21T08:08:30.717Z,45.31
2018-02-21T08:10:58.186Z,44.31
2018-02-21T08:13:25.740Z,44.11
2018-02-21T08:15:53.233Z,43.65
2018-02-21T08:18:20.791Z,42.49
2018-02-21T08:20:48.316Z,41.71
2018-02-21T08:23:15.741Z,41.23
2018-02-21T08:25:43.321Z,39.92
2018-02-21T08:28:10.792Z,39.45
2018-02-21T08:30:38.377Z,39.77
2018-02-21T08:33:05.914Z,40.26
2018-02-21T08:35:33.400Z,40.51
2018-02-21T08:38:01.432Z,40.24
2018-02-21T08:40:28.970Z,39.86
2018-02-21T08:42:56.455Z,39.72
2018-02-21T08:45:23.951Z,39.65
2018-02-21T08:47:51.461Z,38.80
2018-02-21T08:50:18.966Z,38.42
2018-02-21T08:52:46.503Z,38.37
2018-02-21T08:55:13.983Z,38.05
2018-02-21T08:57:41.621Z,38.45
2018-02-21T09:00:09.125Z,38.36
2018-02-21T09:02:36.684Z,37.72
2018-02-21T09:05:04.782Z,36.94
2018-02-21T09:07:32.396Z,36.69
2018-02-21T09:09:59.833Z,37.40
2018-02-21T09:12:28.155Z,36.92
2018-02-21T09:14:55.627Z,37.41
2018-02-21T09:17:23.040Z,37.09
2018-02-21T09:19:50.489Z,36.49
2018-02-21T09:22:17.942Z,36.32
2018-02-21T09:24:45.425Z,36.12
2018-02-21T09:27:12.918Z,35.86
2018-02-21T09:29:40.413Z,36.78
2018-02-21T09:32:07.940Z,36.87
2018-02-21T09:34:35.358Z,37.51
2018-02-21T09:37:02.882Z,38.66
2018-02-21T09:39:30.353Z,39.91
2018-02-21T09:41:57.940Z,41.01
2018-02-21T09:44:25.743Z,41.72
2018-02-21T09:46:53.276Z,41.64
2018-02-21T09:49:20.852Z,41.05
2018-02-21T09:51:48.525Z,41.32
2018-02-21T09:54:16.013Z,42.31
2018-02-21T09:56:43.529Z,43.04
2018-02-21T09:59:10.990Z,43.39
2018-02-21T10:01:38.595Z,44.76
2018-02-21T10:04:06.138Z,45.18
2018-02-21T10:06:33.609Z,45.61
2018-02-21T10:09:01.347Z,46.22
2018-02-21T10:11:28.814Z,46.21
2018-02-21T10:13:56.274Z,45.99
2018-02-21T10:16:23.732Z,46.81
2018-02-21T10:18:51.234Z,47.26
2018-02-21T10:21:18.745Z,47.34
2018-02-21T10:23:46.319Z,47.29
2018-02-21T10:26:13.833Z,47.15
2018-02-21T10:28:41.549Z,47.17
2018-02-21T10:31:09.024Z,47.53
2018-02-21T10:33:36.646Z,47.28
2018-02-21T10:36:04.592Z,47.60
2018-02-21T10:38:32.086Z,46.93
2018-02-21T10:40:59.601Z,46.71
2018-02-21T10:43:27.076Z,46.61
2018-02-21T10:45:54.742Z,46.76
2018-02-21T10:48:22.307Z,47.21
2018-02-21T10:50:49.809Z,47.47
2018-02-21T10:53:17.354Z,47.44
2018-02-21T10:55:44.870Z,47.48
2018-02-21T10:58:12.690Z,47.80
2018-02-21T11:00:45.749Z,47.79
2018-02-21T11:03:13.216Z,48.12
2018-02-21T11:05:40.974Z,48.40
2018-02-21T11:08:08.456Z,47.93
2018-02-21T11:10:36.140Z,48.20
2018-02-21T11:13:04.575Z,48.37
2018-02-21T11:15:31.999Z,47.56
2018-02-21T11:17:59.593Z,48.10
2018-02-21T11:20:27.021Z,47.44
2018-02-21T11:22:54.489Z,48.77
2018-02-21T11:25:22.148Z,48.63
2018-02-21T11:27:49.666Z,48.68
2018-02-21T11:30:17.382Z,48.78
2018-02-21T11:32:44.952Z,48.96
2018-02-21T11:35:12.493Z,49.08
2018-02-21T11:37:39.978Z,49.43
2018-02-21T11:40:07.520Z,48.52
2018-02-21T11:42:34.971Z,49.07
2018-02-21T11:45:02.527Z,49.43
2018-02-21T11:47:29.924Z,49.25
2018-02-21T11:49:57.426Z,49.05
2018-02-21T11:52:24.904Z,49.18
2018-02-21T11:54:52.972Z,49.00
2018-02-21T11:57:20.434Z,48.84
2018-02-21T11:59:47.883Z,49.04
2018-02-21T12:02:15.430Z,48.75
2018-02-21T12:04:43.160Z,48.62
2018-02-21T12:07:10.625Z,48.75
2018-02-21T12:09:41.192Z,48.34
2018-02-21T12:12:08.690Z,48.32
2018-02-21T12:14:36.302Z,48.58
2018-02-21T12:17:03.769Z,49.22
2018-02-21T12:19:31.274Z,49.25
2018-02-21T12:21:58.771Z,48.84
2018-02-21T12:24:26.280Z,49.18
2018-02-21T12:26:54.176Z,49.62
2018-02-21T12:29:21.683Z,50.12
2018-02-21T12:31:51.567Z,50.08
2018-02-21T12:34:19.085Z,49.58
2018-02-21T12:36:46.602Z,49.07
2018-02-21T12:39:19.834Z,49.58
2018-02-21T12:41:47.339Z,49.81
2018-02-21T12:44:14.894Z,49.87
2018-02-21T12:46:42.366Z,49.26
2018-02-21T12:49:09.916Z,49.56
2018-02-21T12:51:37.416Z,49.31
2018-02-21T12:54:04.988Z,49.66
2018-02-21T12:56:32.560Z,50.17
2018-02-21T12:59:00.079Z,49.86
2018-02-21T13:01:27.582Z,49.13
2018-02-21T13:03:55.088Z,49.21
2018-02-21T13:06:22.616Z,48.87
2018-02-21T13:08:50.103Z,49.31
2018-02-21T13:11:17.585Z,49.99
2018-02-21T13:13:45.068Z,49.59
2018-02-21T13:16:12.500Z,49.02
2018-02-21T13:18:39.908Z,49.35
2018-02-21T13:21:07.365Z,49.21
2018-02-21T13:23:34.868Z,49.57
2018-02-21T13:26:02.779Z,49.37
2018-02-21T13:28:30.305Z,49.29
2018-02-21T13:30:57.788Z,49.54
2018-02-21T13:33:25.267Z,49.87
2018-02-21T13:35:52.846Z,50.15
2018-02-21T13:38:20.298Z,50.35
2018-02-21T13:40:47.721Z,50.41
2018-02-21T13:43:15.124Z,50.96
2018-02-21T13:45:42.520Z,51.40
2018-02-21T13:48:10.029Z,51.27
2018-02-21T13:50:37.748Z,51.09
2018-02-21T13:53:05.259Z,50.90
2018-02-21T13:55:32.742Z,51.14
2018-02-21T13:58:00.239Z,51.43
2018-02-21T14:00:27.664Z,51.57
2018-02-21T14:02:55.123Z,52.02
2018-02-21T14:05:23.766Z,51.87
2018-02-21T14:07:51.218Z,52.18
2018-02-21T14:10:19.633Z,52.35
2018-02-21T14:12:47.091Z,52.33
2018-02-21T14:15:14.621Z,52.16
2018-02-21T14:17:42.645Z,52.65
2018-02-21T14:20:10.359Z,52.96
2018-02-21T14:22:37.855Z,53.01
2018-02-21T14:25:05.413Z,52.36
2018-02-21T14:27:32.935Z,51.97
2018-02-21T14:30:00.485Z,51.94
2018-02-21T14:32:28.726Z,52.12
2018-02-21T14:34:56.246Z,52.15
2018-02-21T14:37:23.729Z,51.89
2018-02-21T14:39:51.295Z,51.84
2018-02-21T14:42:18.773Z,51.84
2018-02-21T14:44:46.394Z,51.21
2018-02-21T14:47:13.880Z,51.15
2018-02-21T14:49:41.390Z,50.52
2018-02-21T14:52:09.316Z,50.90
2018-02-21T14:54:36.820Z,50.72
2018-02-21T14:57:04.359Z,51.36
2018-02-21T14:59:31.928Z,51.37
2018-02-21T15:01:59.397Z,51.12
2018-02-21T15:04:26.894Z,51.05
2018-02-21T15:06:54.509Z,51.05
2018-02-21T15:09:22.073Z,51.27
2018-02-21T15:11:49.612Z,51.16
2018-02-21T15:14:17.106Z,51.20
2018-02-21T15:16:44.669Z,50.78
2018-02-21T15:19:12.162Z,50.88
2018-02-21T15:21:39.660Z,51.38
2018-02-21T15:24:08.144Z,51.29
2018-02-21T15:26:35.609Z,51.52
2018-02-21T15:29:04.006Z,51.82
2018-02-21T15:31:31.514Z,51.80
2018-02-21T15:33:59.059Z,51.79
2018-02-21T15:36:26.538Z,51.89
2018-02-21T15:38:54.014Z,52.06
2018-02-21T15:41:21.502Z,52.50
2018-02-21T15:43:48.995Z,51.79
2018-02-21T15:46:16.525Z,51.85
2018-02-21T15:48:44.093Z,52.58
2018-02-21T15:51:11.591Z,53.02
2018-02-21T15:53:39.281Z,53.32
2018-02-21T15:56:06.805Z,53.17
2018-02-21T15:58:34.303Z,53.38
2018-02-21T16:01:01.853Z,53.43
2018-02-21T16:03:30.611Z,53.64
2018-02-21T16:05:58.062Z,53.60
2018-02-21T16:08:25.616Z,53.09
2018-02-21T16:10:53.278Z,52.51
2018-02-21T16:13:20.675Z,52.66
2018-02-21T16:15:48.134Z,52.88
2018-02-21T16:18:15.779Z,53.45
2018-02-21T16:20:43.240Z,53.79
2018-02-21T16:23:11.293Z,53.75
2018-02-21T16:25:39.005Z,53.65
2018-02-21T16:28:06.498Z,53.65
2018-02-21T16:30:34.296Z,53.99
2018-02-21T16:33:01.791Z,53.33
2018-02-21T16:35:29.253Z,53.34
2018-02-21T16:37:56.746Z,53.65
2018-02-21T16:40:24.257Z,53.76
2018-02-21T16:42:51.930Z,53.65
2018-02-21T16:45:19.394Z,53.59
2018-02-21T16:47:46.847Z,53.57
2018-02-21T16:50:14.415Z,53.59
2018-02-21T16:52:41.827Z,53.38
2018-02-21T16:55:09.914Z,53.62
2018-02-21T16:57:37.453Z,53.59
2018-02-21T17:00:04.929Z,53.82
2018-02-21T17:02:32.451Z,53.56
2018-02-21T17:04:59.929Z,53.68
2018-02-21T17:07:27.423Z,53.71
2018-02-21T17:09:54.897Z,54.05
2018-02-21T17:12:22.419Z,54.14
2018-02-21T17:14:49.942Z,53.73
2018-02-21T17:17:17.467Z,53.05
2018-02-21T17:19:45.972Z,53.19
2018-02-21T17:22:13.443Z,53.37
2018-02-21T17:24:41.245Z,53.08
2018-02-21T17:27:08.790Z,53.53
2018-02-21T17:29:36.301Z,54.07
2018-02-21T17:32:03.773Z,53.87
2018-02-21T17:34:31.275Z,54.43
2018-02-21T17:36:58.741Z,54.34
2018-02-21T17:39:26.228Z,54.05
2018-02-21T17:41:53.763Z,53.95
2018-02-21T17:44:21.544Z,53.74
2018-02-21T17:46:49.037Z,53.42
2018-02-21T17:49:16.455Z,53.69
2018-02-21T17:51:44.065Z,54.21
2018-02-21T17:54:11.570Z,54.19
2018-02-21T17:56:39.091Z,54.10
2018-02-21T17:59:06.637Z,53.87
2018-02-21T18:01:34.208Z,53.64
2018-02-21T18:04:01.747Z,53.96
2018-02-21T18:06:29.156Z,53.67
2018-02-21T18:08:56.682Z,53.73
2018-02-21T18:11:24.165Z,53.51
2018-02-21T18:13:51.577Z,54.00
2018-02-21T18:16:19.058Z,54.31
2018-02-21T18:18:46.524Z,53.81
2018-02-21T18:21:19.530Z,53.88
2018-02-21T18:23:47.055Z,53.64
2018-02-21T18:26:14.503Z,53.72
2018-02-21T18:28:42.037Z,53.91
2018-02-21T18:31:09.559Z,54.11
2018-02-21T18:33:37.037Z,54.20
2018-02-21T18:36:04.529Z,54.05
2018-02-21T18:38:32.075Z,53.61
2018-02-21T18:40:59.609Z,53.81
2018-02-21T18:43:27.139Z,53.81
2018-02-21T18:45:54.696Z,53.54
2018-02-21T18:48:22.251Z,53.95
2018-02-21T18:50:49.722Z,53.97
2018-02-21T18:53:17.227Z,53.63
2018-02-21T18:55:44.756Z,53.73
2018-02-21T18:58:12.395Z,53.81
2018-02-21T19:00:39.870Z,53.54
2018-02-21T19:03:07.340Z,53.68
2018-02-21T19:05:34.946Z,53.81
2018-02-21T19:08:02.402Z,53.72
2018-02-21T19:10:30.012Z,53.95
2018-02-21T19:12:57.550Z,54.01
2018-02-21T19:15:25.067Z,53.87
2018-02-21T19:17:52.739Z,53.65
2018-02-21T19:20:20.245Z,54.14
2018-02-21T19:22:47.735Z,54.42
2018-02-21T19:25:15.346Z,54.44
2018-02-21T19:27:42.900Z,54.20
2018-02-21T19:30:10.452Z,54.10
2018-02-21T19:32:38.020Z,54.11
2018-02-21T19:35:05.506Z,54.35
2018-02-21T19:37:32.987Z,54.22
2018-02-21T19:40:00.490Z,54.02
2018-02-21T19:42:28.064Z,54.23
2018-02-21T19:44:55.531Z,54.08
2018-02-21T19:47:22.967Z,54.07
2018-02-21T19:49:50.437Z,53.56
2018-02-21T19:52:17.995Z,53.55
2018-02-21T19:54:45.423Z,53.59
2018-02-21T19:57:12.820Z,53.48
2018-02-21T19:59:40.278Z,53.43
2018-02-21T20:02:07.716Z,53.22
2018-02-21T20:04:35.177Z,52.99
2018-02-21T20:07:02.560Z,53.04
2018-02-21T20:09:29.958Z,53.45
2018-02-21T20:11:57.364Z,53.68
2018-02-21T20:14:25.031Z,53.78
2018-02-21T20:16:52.537Z,54.13
2018-02-21T20:19:20.031Z,53.75
2018-02-21T20:21:47.536Z,53.89
2018-02-21T20:24:15.030Z,54.01
2018-02-21T20:26:42.447Z,54.06
2018-02-21T20:29:09.995Z,54.33
2018-02-21T20:31:37.419Z,54.47
2018-02-21T20:34:04.931Z,54.41
2018-02-21T20:36:32.547Z,54.37
2018-02-21T20:39:00.099Z,54.55
2018-02-21T20:41:27.650Z,54.77
2018-02-21T20:43:55.144Z,55.01
2018-02-21T20:46:22.625Z,55.04
2018-02-21T20:48:50.063Z,55.20
2018-02-21T20:51:17.578Z,54.92
2018-02-21T20:53:45.044Z,55.21
2018-02-21T20:56:12.533Z,55.10
2018-02-21T20:58:39.967Z,55.35
2018-02-21T21:01:07.496Z,55.90
2018-02-21T21:03:34.910Z,55.64
2018-02-21T21:06:02.363Z,55.48
2018-02-21T21:08:29.970Z,55.88
2018-02-21T21:10:57.405Z,55.73
2018-02-21T21:13:24.865Z,56.23
2018-02-21T21:15:52.279Z,56.71
2018-02-21T21:18:19.722Z,56.35
2018-02-21T21:20:47.160Z,56.60
2018-02-21T21:23:14.617Z,56.64
2018-02-21T21:25:42.090Z,56.93
2018-02-21T21:28:09.564Z,56.82
2018-02-21T21:30:37.037Z,56.70
2018-02-21T21:33:04.464Z,56.82
2018-02-21T21:35:31.926Z,56.81
2018-02-21T21:37:59.423Z,57.02
2018-02-21T21:40:26.820Z,57.52
2018-02-21T21:42:54.319Z,56.97
2018-02-21T21:45:21.732Z,56.87
2018-02-21T21:47:49.152Z,57.04
2018-02-21T21:50:16.665Z,57.18
2018-02-21T21:52:44.203Z,57.29
2018-02-21T21:55:11.719Z,57.30
2018-02-21T21:57:39.196Z,57.35
2018-02-21T22:00:06.707Z,57.45
2018-02-21T22:02:34.372Z,57.29
2018-02-21T22:05:01.821Z,57.26
2018-02-21T22:07:29.296Z,57.51
2018-02-21T22:09:56.708Z,57.26
2018-02-21T22:12:24.111Z,57.12
2018-02-21T22:14:51.572Z,57.19
2018-02-21T22:17:19.105Z,57.85
2018-02-21T22:19:46.656Z,57.95
2018-02-21T22:22:14.789Z,58.04
2018-02-21T22:24:42.318Z,57.67
2018-02-21T22:27:09.809Z,57.62
2018-02-21T22:29:37.229Z,57.68
2018-02-21T22:32:04.766Z,57.85
2018-02-21T22:34:32.188Z,58.17
2018-02-21T22:36:59.709Z,58.09
2018-02-21T22:39:28.431Z,58.37
2018-02-21T22:41:55.951Z,58.26
2018-02-21T22:44:23.360Z,58.29
2018-02-21T22:46:50.797Z,58.20
2018-02-21T22:49:18.222Z,58.57
2018-02-21T22:51:45.612Z,58.75
2018-02-21T22:54:13.017Z,58.65
2018-02-21T22:56:40.463Z,58.94
2018-02-21T22:59:07.965Z,59.70
2018-02-21T23:01:35.365Z,59.73
2018-02-21T23:04:02.780Z,59.05
2018-02-21T23:06:31.007Z,59.24
2018-02-21T23:08:58.440Z,59.36
2018-02-21T23:11:25.851Z,59.41
2018-02-21T23:13:53.258Z,59.11
2018-02-21T23:16:20.704Z,58.89
2018-02-21T23:18:48.144Z,58.97
2018-02-21T23:21:15.544Z,59.16
2018-02-21T23:23:42.988Z,59.33
2018-02-21T23:26:10.508Z,59.49
2018-02-21T23:28:37.926Z,59.20
2018-02-21T23:31:05.372Z,59.14
2018-02-21T23:33:32.774Z,59.08
2018-02-21T23:36:00.209Z,58.81
2018-02-21T23:38:27.591Z,59.05
2018-02-21T23:40:54.999Z,59.04
2018-02-21T23:43:22.439Z,59.16
2018-02-21T23:45:49.842Z,59.01
2018-02-21T23:48:17.984Z,59.21
2018-02-21T23:50:45.591Z,59.25
2018-02-21T23:53:13.396Z,59.32
2018-02-21T23:55:40.786Z,59.61
2018-02-21T23:58:08.194Z,59.35
